CheckWX is a tool to help pilots better visualize weather data.  It is not intended as a substitute for an official pre-flight weather briefing.

21:28:30 UTC

KRUQ METAR
Mid-Carolina Regional Airport
Salisbury, North Carolina, USA
Current

29 mins ago

KRUQ 232100Z AUTO 21008KT 10SM SCT032 SCT038 29/21 A3015 RMK AO2 T02860212
Observed
May-23 @ 21:00 UTC
Wind
  • 210° at 8 KTS
Visibility
10 SM
Flight Rules
VFR
Cloud Levels
  • Scattered at 3,200' AGL
  • Scattered at 3,800' AGL
Temperature
29°C / 84°F
Dewpoint
21°C / 70°F
Heat Index
31°C / 88°F
Humidity
62%
Altimeter
30.15" Hg
Pressure
1021.02 hPa
Previous

49 mins ago

KRUQ 232040Z AUTO 21004KT 10SM SCT032 28/21 A3017 RMK AO2 T02820214
Observed
May-23 @ 20:40 UTC
Wind
  • 210° at 4 KTS
Visibility
10 SM
Flight Rules
VFR
Cloud Levels
  • Scattered at 3,200' AGL
Temperature
28°C / 82°F
Dewpoint
21°C / 70°F
Heat Index
30°C / 86°F
Humidity
66%
Altimeter
30.17" Hg
Pressure
1021.72 hPa
Previous

2 hours ago

KRUQ 231920Z AUTO 21006KT 10SM SCT031 SCT120 28/21 A3020 RMK AO2 T02790209
Observed
May-23 @ 19:20 UTC
Wind
  • 210° at 6 KTS
Visibility
10 SM
Flight Rules
VFR
Cloud Levels
  • Scattered at 3,100' AGL
  • Scattered at 12,000' AGL
Temperature
28°C / 82°F
Dewpoint
21°C / 70°F
Heat Index
30°C / 86°F
Humidity
66%
Altimeter
30.2" Hg
Pressure
1022.72 hPa